Time,TemperatureF,DewpointF,PressureIn,WindDirection,WindDirectionDegrees,WindSpeedMPH,WindSpeedGustMPH,Humidity,HourlyPrecipIn,Conditions,Clouds,dailyrainin,SoftwareType,DateUTC
2013-10-15 01:22:00,60.0,-99.9,30.00,NNW,329,-999.0,1.0,-999,-99.99,,,-99.99,,2013-10-15 08:22:00,
2013-10-15 02:12:00,59.0,-99.9,30.00,SE,132,1.0,1.0,-999,-99.99,,,-99.99,,2013-10-15 09:12:00,
2013-10-15 03:23:00,58.0,-99.9,30.00,NE,55,-999.0,-999.0,-999,-99.99,,,-99.99,,2013-10-15 10:23:00,
2013-10-15 05:52:00,58.0,-99.9,29.99,North,-999,4.0,5.0,-999,-99.99,,,-99.99,,2013-10-15 12:52:00,
2013-10-15 07:52:00,56.0,-99.9,30.00,NW,306,1.0,2.0,-999,-99.99,,,-99.99,,2013-10-15 14:52:00,
2013-10-15 08:02:00,56.0,-99.9,30.00,NW,306,1.0,2.0,-999,-99.99,,,-99.99,,2013-10-15 15:02:00,
2013-10-15 08:22:00,57.0,-99.9,30.01,West,280,1.0,3.0,-999,-99.99,,,-99.99,,2013-10-15 15:22:00,
2013-10-15 08:34:00,57.0,-99.9,30.01,West,280,1.0,3.0,-999,-99.99,,,-99.99,,2013-10-15 15:34:00,
2013-10-15 08:53:00,58.0,-99.9,30.01,WNW,301,2.0,3.0,-999,-99.99,,,-99.99,,2013-10-15 15:53:00,
2013-10-15 09:03:00,58.0,-99.9,30.01,WNW,301,2.0,3.0,-999,-99.99,,,-99.99,,2013-10-15 16:03:00,
2013-10-15 09:23:00,59.0,-99.9,30.01,NW,316,-999.0,2.0,-999,-99.99,,,-99.99,,2013-10-15 16:23:00,
2013-10-15 09:43:00,58.0,-99.9,30.02,North,8,2.0,3.0,-999,-99.99,,,-99.99,,2013-10-15 16:43:00,
2013-10-15 09:53:00,58.0,-99.9,30.02,North,8,2.0,3.0,-999,-99.99,,,-99.99,,2013-10-15 16:53:00,
2013-10-15 10:03:00,58.0,-99.9,30.02,North,8,2.0,3.0,-999,-99.99,,,-99.99,,2013-10-15 17:03:00,
2013-10-15 10:22:00,60.0,-99.9,30.02,ENE,57,0.0,2.0,-999,-99.99,,,-99.99,,2013-10-15 17:22:00,
2013-10-15 12:52:00,67.0,-99.9,29.99,NW,321,9.0,10.0,-999,-99.99,,,-99.99,,2013-10-15 19:52:00,
2013-10-15 16:43:00,78.0,-99.9,29.93,WNW,295,4.0,8.0,-999,-99.99,,,-99.99,,2013-10-15 23:43:00,
2013-10-15 19:00:00,70.0,-99.9,29.93,WSW,242,7.0,10.0,-999,-99.99,,,-99.99,,2013-10-16 02:00:00,
2013-10-15 19:43:00,70.0,-99.9,29.93,WSW,242,7.0,10.0,-999,-99.99,,,-99.99,,2013-10-16 02:43:00,
2013-10-15 19:52:00,70.0,-99.9,29.93,WSW,242,7.0,10.0,-999,-99.99,,,-99.99,,2013-10-16 02:52:00,
2013-10-15 20:45:00,67.0,-99.9,29.94,NW,324,3.0,4.0,-999,-99.99,,,-99.99,,2013-10-16 03:45:00,
2013-10-15 20:55:00,67.0,-99.9,29.94,NW,324,3.0,4.0,-999,-99.99,,,-99.99,,2013-10-16 03:55:00,
2013-10-15 21:14:00,62.0,-99.9,29.95,East,82,0.0,1.0,-999,-99.99,,,-99.99,,2013-10-16 04:14:00,
2013-10-15 21:24:00,62.0,-99.9,29.95,East,82,0.0,1.0,-999,-99.99,,,-99.99,,2013-10-16 04:24:00,
2013-10-15 21:34:00,62.0,-99.9,29.95,East,82,0.0,1.0,-999,-99.99,,,-99.99,,2013-10-16 04:34:00,